Terminal Aerodrome Forecast
Issued by NWS Amarillo, TX

Home | Current Version | Previous Version | Text Only | Print | Product List | Glossary On
Versions: 1 2 3 4 5 6 7 8 9 10 11 12 13 14 15 16 17 18 19 20 21 22
818
FTUS44 KAMA 221138
TAFAMA
TAF
KAMA 221138Z 2212/2312 18010KT P6SM SCT040 BKN250
     FM221800 17017G25KT P6SM SCT080 SCT150 PROB30 2221/2303 -TSRA
      BKN050CB
     FM230300 14012KT P6SM FEW070 BKN200=

USA.gov is the U.S. government's official web portal to all federal, state and local government web resources and services.